Terminal Aerodrome Forecast
Issued by NWS

Home | Current Version | Previous Version | Text Only | Print | Product List | Glossary On
Versions: 1 2 3 4 5 6 7 8 9 10 11 12 13 14 15
000
FTUS44 KLUB 260520
TAFCDS
TAF
KCDS 260520Z 2606/2706 36011KT P6SM -SHRA SCT050 OVC100
      TEMPO 2606/2607 VRB20G30KT 5SM TSRA SCT020 BKN040CB
     FM261000 VRB06KT P6SM FEW020 BKN100
     FM261900 16010KT P6SM SCT060 BKN150=

USA.gov is the U.S. government's official web portal to all federal, state and local government web resources and services.